Time;durP1;ratioP1;P1;durP2;ratioP2;P2;SDS_P1;SDS_P2;PMS_P1;PMS_P2;Temp;Humidity;BMP_temperature;BMP_pressure;BME280_temperature;BME280_humidity;BME280_pressure;Samples;Min_cycle;Max_cycle;Signal;HPM_P1;HPM_P2
2021/08/21 00:01:46;;;;;;;7.32;4.20;;;;;;;;;;5064903;28;20013;-76
2021/08/21 00:04:13;;;;;;;8.40;3.97;;;;;;;;;;5064513;28;20028;-77
2021/08/21 00:06:39;;;;;;;6.00;3.78;;;;;;;;;;5063914;28;20034;-77
2021/08/21 00:09:04;;;;;;;8.18;3.88;;;;;;;;;;5064908;28;20032;-76
2021/08/21 00:11:29;;;;;;;8.55;3.83;;;;;;;;;;5063999;28;20060;-77
2021/08/21 00:13:55;;;;;;;7.22;4.10;;;;;;;;;;5058783;28;20041;-77
2021/08/21 00:16:20;;;;;;;5.55;3.53;;;;;;;;;;5061917;28;20498;-76
2021/08/21 00:18:45;;;;;;;8.40;4.03;;;;;;;;;;5064196;28;20017;-77
2021/08/21 00:21:13;;;;;;;5.53;3.83;;;;;;;;;;5060251;28;20077;-77
2021/08/21 00:23:40;;;;;;;6.60;3.70;;;;;;;;;;5057663;28;20070;-77
2021/08/21 00:26:06;;;;;;;7.15;3.92;;;;;;;;;;5061176;28;20032;-77
2021/08/21 00:28:32;;;;;;;7.50;4.13;;;;;;;;;;5046418;28;20027;-77
2021/08/21 00:30:57;;;;;;;8.55;4.03;;;;;;;;;;5064335;28;20032;-77
2021/08/21 00:33:22;;;;;;;6.60;3.78;;;;;;;;;;5060057;28;20139;-76
2021/08/21 00:35:48;;;;;;;6.13;3.58;;;;;;;;;;5050427;28;20029;-76
2021/08/21 00:38:13;;;;;;;6.25;3.65;;;;;;;;;;5068746;28;20024;-76
2021/08/21 00:40:39;;;;;;;6.50;3.40;;;;;;;;;;5068248;28;20033;-76
2021/08/21 00:43:04;;;;;;;9.25;3.42;;;;;;;;;;5050187;28;20024;-76
2021/08/21 00:45:29;;;;;;;8.88;4.45;;;;;;;;;;5068421;28;20035;-76
2021/08/21 00:47:55;;;;;;;7.93;4.05;;;;;;;;;;5067380;28;20115;-76
2021/08/21 00:50:20;;;;;;;6.35;3.95;;;;;;;;;;5068131;28;20020;-76
2021/08/21 00:52:46;;;;;;;9.00;4.20;;;;;;;;;;5068075;28;20028;-76
2021/08/21 00:55:11;;;;;;;5.75;3.67;;;;;;;;;;5067382;28;20028;-76
2021/08/21 00:57:37;;;;;;;7.45;5.13;;;;;;;;;;5068073;28;20031;-76
2021/08/21 01:00:04;;;;;;;5.65;3.92;;;;;;;;;;5067966;28;20028;-76
2021/08/21 01:02:31;;;;;;;10.05;4.47;;;;;;;;;;5067576;28;20656;-76
2021/08/21 01:04:58;;;;;;;5.53;3.65;;;;;;;;;;5067948;28;20515;-76
2021/08/21 01:07:29;;;;;;;8.60;4.82;;;;;;;;;;5049633;28;20056;-76
2021/08/21 01:09:55;;;;;;;;;;;;;;;;;;5068219;28;20036;-76
2021/08/21 01:12:22;;;;;;;6.95;3.88;;;;;;;;;;5067228;28;19912;-76
2021/08/21 01:14:49;;;;;;;6.60;3.92;;;;;;;;;;5066570;28;20165;-76
2021/08/21 01:17:15;;;;;;;6.28;3.58;;;;;;;;;;5050635;28;20020;-76
2021/08/21 01:19:46;;;;;;;6.97;4.35;;;;;;;;;;5074692;28;20111;-76
2021/08/21 01:22:14;;;;;;;5.65;3.78;;;;;;;;;;5069543;28;20077;-76
2021/08/21 01:24:45;;;;;;;7.50;3.70;;;;;;;;;;5060422;28;20027;-76
2021/08/21 01:27:24;;;;;;;5.43;3.50;;;;;;;;;;5067926;28;20040;-76
2021/08/21 01:29:51;;;;;;;9.77;4.20;;;;;;;;;;5069781;28;20024;-76
2021/08/21 01:32:17;;;;;;;7.07;4.20;;;;;;;;;;5068429;28;20146;-76
2021/08/21 01:34:43;;;;;;;6.97;3.83;;;;;;;;;;5087512;28;20514;-76
2021/08/21 01:37:09;;;;;;;6.20;4.00;;;;;;;;;;5086921;28;20031;-76
2021/08/21 01:39:35;;;;;;;7.18;4.60;;;;;;;;;;5063104;28;20038;-76
2021/08/21 01:42:00;;;;;;;8.13;4.43;;;;;;;;;;5049586;28;20526;-76
2021/08/21 01:44:26;;;;;;;5.57;3.70;;;;;;;;;;5065548;28;20056;-76
2021/08/21 01:46:52;;;;;;;7.47;4.10;;;;;;;;;;5066785;28;20040;-76
2021/08/21 01:49:22;;;;;;;7.97;3.97;;;;;;;;;;5064970;28;20111;-76
2021/08/21 01:51:50;;;;;;;5.53;3.70;;;;;;;;;;5050814;28;20391;-76
2021/08/21 01:54:22;;;;;;;6.57;4.57;;;;;;;;;;5066404;28;20051;-76
2021/08/21 01:56:49;;;;;;;7.07;4.43;;;;;;;;;;5066782;28;20017;-76
2021/08/21 01:59:35;;;;;;;7.72;4.78;;;;;;;;;;5064100;28;20534;-76
2021/08/21 02:02:00;;;;;;;6.82;3.92;;;;;;;;;;5065798;28;20036;-76
2021/08/21 02:04:26;;;;;;;6.57;3.95;;;;;;;;;;5065818;28;20032;-76
2021/08/21 02:06:52;;;;;;;7.38;4.90;;;;;;;;;;5048332;28;20017;-76
2021/08/21 02:09:19;;;;;;;7.65;4.38;;;;;;;;;;5066590;28;20070;-76
2021/08/21 02:11:46;;;;;;;6.82;4.30;;;;;;;;;;5066267;28;20790;-76
2021/08/21 02:14:12;;;;;;;7.75;4.70;;;;;;;;;;5063335;28;20483;-76
2021/08/21 02:16:37;;;;;;;7.28;4.15;;;;;;;;;;5048038;28;20115;-76
2021/08/21 02:19:03;;;;;;;8.27;4.78;;;;;;;;;;5072555;28;20535;-76
2021/08/21 02:21:29;;;;;;;6.60;3.85;;;;;;;;;;5082773;28;20483;-76
2021/08/21 02:23:57;;;;;;;6.25;4.10;;;;;;;;;;5067754;28;20164;-76
2021/08/21 02:26:23;;;;;;;6.00;4.18;;;;;;;;;;5079405;28;20024;-76
2021/08/21 02:28:48;;;;;;;7.18;4.38;;;;;;;;;;5066507;28;20059;-76
2021/08/21 02:31:13;;;;;;;6.72;4.93;;;;;;;;;;5065926;28;20066;-76
2021/08/21 02:33:38;;;;;;;8.10;4.47;;;;;;;;;;5066218;28;20582;-76
2021/08/21 02:36:04;;;;;;;7.35;4.18;;;;;;;;;;5065657;28;20788;-76
2021/08/21 02:38:30;;;;;;;7.13;4.28;;;;;;;;;;5064541;28;20669;-76
2021/08/21 02:40:55;;;;;;;8.10;4.28;;;;;;;;;;5066691;28;20120;-76
2021/08/21 02:43:21;;;;;;;7.43;4.70;;;;;;;;;;5066265;28;20039;-76
2021/08/21 02:45:48;;;;;;;6.88;4.50;;;;;;;;;;5057024;28;20035;-76
2021/08/21 02:48:13;;;;;;;8.70;4.70;;;;;;;;;;5031022;28;20921;-76
2021/08/21 02:50:39;;;;;;;6.57;4.15;;;;;;;;;;5065255;28;20117;-76
2021/08/21 02:53:04;;;;;;;6.20;3.97;;;;;;;;;;5064887;28;20033;-76
2021/08/21 02:55:30;;;;;;;7.78;4.57;;;;;;;;;;5064964;28;20099;-76
2021/08/21 02:57:55;;;;;;;6.90;4.40;;;;;;;;;;5065822;28;20029;-76
2021/08/21 03:00:21;;;;;;;7.25;4.20;;;;;;;;;;5046493;28;20036;-76
2021/08/21 03:02:46;;;;;;;6.85;4.63;;;;;;;;;;5063966;28;20039;-76
2021/08/21 03:05:12;;;;;;;9.10;4.70;;;;;;;;;;5047492;28;20031;-75
2021/08/21 03:07:37;;;;;;;8.95;4.53;;;;;;;;;;5049021;28;20035;-75
2021/08/21 03:10:04;;;;;;;7.70;5.22;;;;;;;;;;5066190;28;20064;-76
2021/08/21 03:12:31;;;;;;;7.97;4.80;;;;;;;;;;5047463;28;20467;-76
2021/08/21 03:14:57;;;;;;;7.03;5.05;;;;;;;;;;5064618;28;20637;-76
2021/08/21 03:17:22;;;;;;;8.88;4.93;;;;;;;;;;5067058;28;20035;-76
2021/08/21 03:19:47;;;;;;;7.18;4.30;;;;;;;;;;5050962;28;20818;-76
2021/08/21 03:22:13;;;;;;;7.63;4.55;;;;;;;;;;5067392;28;20039;-76
2021/08/21 03:24:38;;;;;;;8.38;4.75;;;;;;;;;;5085653;28;20429;-76
2021/08/21 03:27:04;;;;;;;8.45;4.82;;;;;;;;;;5072568;28;20032;-76
2021/08/21 03:29:29;;;;;;;9.60;4.80;;;;;;;;;;5045293;28;20043;-77
2021/08/21 03:31:54;;;;;;;6.60;4.32;;;;;;;;;;5055367;28;20025;-76
2021/08/21 03:34:22;;;;;;;9.10;5.20;;;;;;;;;;5055814;28;20035;-76
2021/08/21 03:36:48;;;;;;;8.70;4.22;;;;;;;;;;5063954;28;20086;-76
2021/08/21 03:39:13;;;;;;;7.25;4.40;;;;;;;;;;5065202;28;20474;-76
2021/08/21 03:41:38;;;;;;;7.57;4.95;;;;;;;;;;5046722;28;20183;-76
2021/08/21 03:44:04;;;;;;;6.55;4.20;;;;;;;;;;5064815;28;20105;-76
2021/08/21 03:46:29;;;;;;;7.50;3.92;;;;;;;;;;5031842;28;20032;-76
2021/08/21 03:48:55;;;;;;;6.28;4.18;;;;;;;;;;5053299;28;20040;-76
2021/08/21 03:51:20;;;;;;;7.80;4.40;;;;;;;;;;5064343;28;20052;-76
2021/08/21 03:53:45;;;;;;;7.18;4.50;;;;;;;;;;5062296;28;20418;-76
2021/08/21 03:56:11;;;;;;;7.55;5.03;;;;;;;;;;5047466;28;20129;-76
2021/08/21 03:58:36;;;;;;;8.07;4.63;;;;;;;;;;5064770;28;20035;-76
2021/08/21 04:01:01;;;;;;;7.30;5.05;;;;;;;;;;5063131;28;20031;-76
2021/08/21 04:03:26;;;;;;;7.72;5.03;;;;;;;;;;5065142;28;20677;-76
2021/08/21 04:05:52;;;;;;;7.72;5.10;;;;;;;;;;5062826;28;20709;-76
2021/08/21 04:08:17;;;;;;;7.43;4.82;;;;;;;;;;5064742;28;20090;-76
2021/08/21 04:10:42;;;;;;;7.07;4.80;;;;;;;;;;5064465;28;20025;-76
2021/08/21 04:13:08;;;;;;;9.15;4.38;;;;;;;;;;5064300;28;20082;-76
2021/08/21 04:15:33;;;;;;;9.75;4.75;;;;;;;;;;5046498;28;20032;-76
2021/08/21 04:17:58;;;;;;;10.90;4.78;;;;;;;;;;5063105;28;20730;-76
2021/08/21 04:20:24;;;;;;;6.80;4.75;;;;;;;;;;5066630;28;21592;-75
2021/08/21 04:22:49;;;;;;;8.95;5.18;;;;;;;;;;5053730;28;20111;-76
2021/08/21 04:25:15;;;;;;;7.07;4.65;;;;;;;;;;5035508;28;20028;-76
2021/08/21 04:27:40;;;;;;;11.98;5.53;;;;;;;;;;5062048;28;20034;-77
2021/08/21 04:30:06;;;;;;;10.40;5.25;;;;;;;;;;5062396;28;20032;-77
2021/08/21 04:32:31;;;;;;;8.32;5.30;;;;;;;;;;5044436;28;20035;-76
2021/08/21 04:34:57;;;;;;;7.22;5.10;;;;;;;;;;5062204;28;20036;-77
2021/08/21 04:37:22;;;;;;;7.47;5.10;;;;;;;;;;5062056;28;20048;-76
2021/08/21 04:39:48;;;;;;;8.93;5.45;;;;;;;;;;5062580;28;20032;-77
2021/08/21 04:42:13;;;;;;;10.00;4.30;;;;;;;;;;5061528;28;20517;-77
2021/08/21 04:44:38;;;;;;;7.53;4.97;;;;;;;;;;5061923;28;20031;-77
2021/08/21 04:47:04;;;;;;;7.95;4.80;;;;;;;;;;5057160;28;20102;-77
2021/08/21 04:49:30;;;;;;;7.90;5.30;;;;;;;;;;5044326;28;20067;-77
2021/08/21 04:51:56;;;;;;;7.10;4.88;;;;;;;;;;5059359;28;20111;-77
2021/08/21 04:54:22;;;;;;;8.30;5.30;;;;;;;;;;5060195;28;20629;-77
2021/08/21 04:56:48;;;;;;;8.13;5.18;;;;;;;;;;5061623;28;20031;-77
2021/08/21 04:59:14;;;;;;;8.18;5.32;;;;;;;;;;5064179;28;20074;-77
2021/08/21 05:01:39;;;;;;;11.70;6.03;;;;;;;;;;5058806;28;20071;-76
2021/08/21 05:04:04;;;;;;;7.97;5.10;;;;;;;;;;5062169;28;20035;-77
2021/08/21 05:06:29;;;;;;;7.97;4.72;;;;;;;;;;5059804;28;20128;-77
2021/08/21 05:08:55;;;;;;;8.35;5.30;;;;;;;;;;5060475;28;20024;-77
2021/08/21 05:11:20;;;;;;;9.25;5.45;;;;;;;;;;5058764;28;20029;-76
2021/08/21 05:13:45;;;;;;;10.30;5.47;;;;;;;;;;5033521;28;20375;-77
2021/08/21 05:16:11;;;;;;;8.07;4.82;;;;;;;;;;5042339;28;20103;-77
2021/08/21 05:18:41;;;;;;;8.57;4.68;;;;;;;;;;5055139;28;20017;-77
2021/08/21 05:21:07;;;;;;;6.72;4.80;;;;;;;;;;5048663;28;20021;-76
2021/08/21 05:23:40;;;;;;;9.27;5.22;;;;;;;;;;5061957;28;20082;-77
2021/08/21 05:26:06;;;;;;;8.57;5.10;;;;;;;;;;5065807;28;20145;-77
2021/08/21 05:28:31;;;;;;;8.25;5.18;;;;;;;;;;5065291;28;20099;-78
2021/08/21 05:30:58;;;;;;;9.38;4.63;;;;;;;;;;5065285;28;20020;-77
2021/08/21 05:33:24;;;;;;;7.43;4.72;;;;;;;;;;5065472;28;20032;-77
2021/08/21 05:35:50;;;;;;;9.43;4.53;;;;;;;;;;5064580;28;20024;-77
2021/08/21 05:38:16;;;;;;;10.80;6.72;;;;;;;;;;5048258;28;20039;-78
2021/08/21 05:40:41;;;;;;;8.52;4.85;;;;;;;;;;5065004;28;20021;-76
2021/08/21 05:43:07;;;;;;;9.00;5.00;;;;;;;;;;5065591;28;20040;-77
2021/08/21 05:45:33;;;;;;;9.15;5.20;;;;;;;;;;5044628;28;20081;-77
2021/08/21 05:47:58;;;;;;;9.65;5.05;;;;;;;;;;5047308;28;20064;-77
2021/08/21 05:50:23;;;;;;;7.97;4.95;;;;;;;;;;5065044;28;20025;-77
2021/08/21 05:52:50;;;;;;;8.15;5.20;;;;;;;;;;5064768;28;20021;-76
2021/08/21 05:55:17;;;;;;;9.63;5.28;;;;;;;;;;5064545;28;20024;-76
2021/08/21 05:57:42;;;;;;;7.53;5.15;;;;;;;;;;5064041;28;20043;-76
2021/08/21 06:00:09;;;;;;;6.63;4.57;;;;;;;;;;5064946;28;20028;-76
2021/08/21 06:02:34;;;;;;;10.60;5.43;;;;;;;;;;5046269;28;20017;-76
2021/08/21 06:05:00;;;;;;;8.98;5.68;;;;;;;;;;5064780;28;20085;-76
2021/08/21 06:07:25;;;;;;;7.50;4.75;;;;;;;;;;5064951;28;20031;-76
2021/08/21 06:09:50;;;;;;;8.60;4.80;;;;;;;;;;5064555;28;20028;-76
2021/08/21 06:12:16;;;;;;;6.70;4.97;;;;;;;;;;5064456;28;20029;-76
2021/08/21 06:14:41;;;;;;;8.05;4.78;;;;;;;;;;5064203;28;20032;-76
2021/08/21 06:17:08;;;;;;;10.48;4.90;;;;;;;;;;5054276;28;20028;-76
2021/08/21 06:19:37;;;;;;;7.13;4.60;;;;;;;;;;5062658;28;20032;-76
2021/08/21 06:22:04;;;;;;;8.02;4.75;;;;;;;;;;5073638;28;20021;-76
2021/08/21 06:24:29;;;;;;;7.32;4.60;;;;;;;;;;5046668;28;20031;-76
2021/08/21 06:26:55;;;;;;;7.97;4.30;;;;;;;;;;5043213;28;20028;-76
2021/08/21 06:29:20;;;;;;;7.75;4.60;;;;;;;;;;5046583;28;20119;-76
2021/08/21 06:31:45;;;;;;;8.68;4.72;;;;;;;;;;5045931;28;20035;-76
2021/08/21 06:34:11;;;;;;;7.40;4.32;;;;;;;;;;5062607;28;20028;-76
2021/08/21 06:36:36;;;;;;;6.82;4.35;;;;;;;;;;5052199;28;20060;-76
2021/08/21 06:39:02;;;;;;;7.60;4.80;;;;;;;;;;5062018;28;20021;-76
2021/08/21 06:41:27;;;;;;;7.68;4.80;;;;;;;;;;5064177;28;20060;-76
2021/08/21 06:43:53;;;;;;;8.98;4.90;;;;;;;;;;5063772;28;20732;-76
2021/08/21 06:46:18;;;;;;;24.67;16.83;;;;;;;;;;5060826;28;20116;-76
2021/08/21 06:48:43;;;;;;;9.98;5.30;;;;;;;;;;5063326;28;20040;-76
2021/08/21 06:51:09;;;;;;;8.23;4.45;;;;;;;;;;5063058;28;20406;-76
2021/08/21 06:53:35;;;;;;;6.60;4.45;;;;;;;;;;5041099;28;20036;-76
2021/08/21 06:56:02;;;;;;;6.60;4.15;;;;;;;;;;5063147;28;20031;-76
2021/08/21 06:58:28;;;;;;;6.40;4.10;;;;;;;;;;5043338;28;20074;-76
2021/08/21 07:00:54;;;;;;;6.05;4.18;;;;;;;;;;5045102;28;20020;-76
2021/08/21 07:03:19;;;;;;;6.72;4.10;;;;;;;;;;5062128;28;20039;-76
2021/08/21 07:05:44;;;;;;;8.77;4.93;;;;;;;;;;5063214;28;20087;-76
2021/08/21 07:08:10;;;;;;;6.68;3.78;;;;;;;;;;5045262;28;20024;-76
2021/08/21 07:10:35;;;;;;;7.75;3.92;;;;;;;;;;5062545;28;20028;-76
2021/08/21 07:13:00;;;;;;;6.40;4.32;;;;;;;;;;5063054;28;20055;-76
2021/08/21 07:15:26;;;;;;;6.80;3.70;;;;;;;;;;5056478;28;20029;-76
2021/08/21 07:17:51;;;;;;;5.05;3.30;;;;;;;;;;5054337;28;20025;-77
2021/08/21 07:20:16;;;;;;;8.15;3.80;;;;;;;;;;5069179;28;20409;-77
2021/08/21 07:22:42;;;;;;;9.13;3.35;;;;;;;;;;5058329;28;20029;-77
2021/08/21 07:25:07;;;;;;;9.70;3.97;;;;;;;;;;5060351;28;20024;-77
2021/08/21 07:27:33;;;;;;;6.95;3.55;;;;;;;;;;5061380;28;20080;-76
2021/08/21 07:29:58;;;;;;;5.95;3.30;;;;;;;;;;5057840;28;20040;-76
2021/08/21 07:32:23;;;;;;;8.48;3.88;;;;;;;;;;5060967;28;20033;-75
2021/08/21 07:34:49;;;;;;;6.78;3.40;;;;;;;;;;5064731;28;20105;-76
2021/08/21 07:37:14;;;;;;;10.45;5.32;;;;;;;;;;5063633;28;20391;-78
2021/08/21 07:39:39;;;;;;;7.20;4.50;;;;;;;;;;5064358;28;20112;-77
2021/08/21 07:42:05;;;;;;;7.38;3.35;;;;;;;;;;5037000;28;20103;-77
2021/08/21 07:44:30;;;;;;;5.40;3.35;;;;;;;;;;5057075;28;20141;-77
2021/08/21 07:46:55;;;;;;;6.60;3.30;;;;;;;;;;5045390;28;20819;-77
2021/08/21 07:49:21;;;;;;;7.18;3.05;;;;;;;;;;5054649;28;20020;-77
2021/08/21 07:51:47;;;;;;;9.38;6.10;;;;;;;;;;5037312;28;20078;-76
2021/08/21 07:54:12;;;;;;;7.20;4.53;;;;;;;;;;5054338;28;20020;-77
2021/08/21 07:56:37;;;;;;;5.75;3.05;;;;;;;;;;5063431;28;20032;-78
2021/08/21 07:59:03;;;;;;;5.85;3.15;;;;;;;;;;5063980;28;20106;-77
2021/08/21 08:01:28;;;;;;;6.43;3.28;;;;;;;;;;5056042;28;20740;-78
2021/08/21 08:03:53;;;;;;;15.68;5.78;;;;;;;;;;5052011;28;20116;-78
2021/08/21 08:06:19;;;;;;;4.78;2.70;;;;;;;;;;5043155;28;20025;-76
2021/08/21 08:08:44;;;;;;;6.18;3.05;;;;;;;;;;5031873;28;20029;-78
2021/08/21 08:11:09;;;;;;;4.57;2.60;;;;;;;;;;5041633;28;20043;-78
2021/08/21 08:13:34;;;;;;;7.15;3.03;;;;;;;;;;5064771;28;20106;-80
2021/08/21 08:16:00;;;;;;;8.73;3.28;;;;;;;;;;5045549;28;20059;-77
2021/08/21 08:18:26;;;;;;;9.15;3.08;;;;;;;;;;5062527;28;20445;-78
2021/08/21 08:20:52;;;;;;;7.10;4.03;;;;;;;;;;5058728;28;20787;-70
2021/08/21 08:23:17;;;;;;;6.82;3.58;;;;;;;;;;5059340;28;20063;-70
2021/08/21 08:25:43;;;;;;;6.03;3.00;;;;;;;;;;5061295;28;20693;-73
2021/08/21 08:28:08;;;;;;;6.07;3.28;;;;;;;;;;5061742;28;20064;-71
2021/08/21 08:30:34;;;;;;;8.38;3.85;;;;;;;;;;5057506;28;20036;-74
2021/08/21 08:33:00;;;;;;;6.50;4.10;;;;;;;;;;5053537;28;20666;-75
2021/08/21 08:35:25;;;;;;;5.20;3.20;;;;;;;;;;5039554;28;20027;-77
2021/08/21 08:37:50;;;;;;;44.15;31.35;;;;;;;;;;5047559;28;20098;-74
2021/08/21 08:40:16;;;;;;;6.63;3.30;;;;;;;;;;5052910;28;20440;-74
2021/08/21 08:42:43;;;;;;;7.32;3.78;;;;;;;;;;5058904;28;20486;-74
2021/08/21 08:45:11;;;;;;;8.10;3.63;;;;;;;;;;5043607;28;20027;-74
2021/08/21 08:47:37;;;;;;;7.47;3.80;;;;;;;;;;5057287;28;20503;-74
2021/08/21 08:50:04;;;;;;;5.10;3.25;;;;;;;;;;5061055;28;20108;-74
2021/08/21 08:52:30;;;;;;;5.85;3.30;;;;;;;;;;5061876;28;20039;-74
2021/08/21 08:54:56;;;;;;;6.25;3.03;;;;;;;;;;5043796;28;20134;-74
2021/08/21 08:57:44;;;;;;;5.05;3.05;;;;;;;;;;5045466;28;20491;-74
2021/08/21 09:00:12;;;;;;;5.68;2.92;;;;;;;;;;5061953;28;20071;-74
2021/08/21 09:02:40;;;;;;;5.60;3.38;;;;;;;;;;5065286;28;20073;-74
2021/08/21 09:05:08;;;;;;;9.25;5.15;;;;;;;;;;5067285;28;20025;-73
2021/08/21 09:07:46;;;;;;;7.03;4.28;;;;;;;;;;5047266;28;21081;-73
2021/08/21 09:10:30;;;;;;;5.68;3.63;;;;;;;;;;5061464;28;20029;-73
2021/08/21 09:13:13;;;;;;;6.10;3.03;;;;;;;;;;5062561;28;20032;-74
2021/08/21 09:15:44;;;;;;;7.05;3.40;;;;;;;;;;5047199;28;20070;-74
2021/08/21 09:18:29;;;;;;;5.85;3.25;;;;;;;;;;5064219;28;20041;-74
2021/08/21 09:20:57;;;;;;;5.95;3.90;;;;;;;;;;5059463;28;20020;-73
2021/08/21 09:23:22;;;;;;;5.78;3.05;;;;;;;;;;5059006;28;20040;-74
2021/08/21 09:25:51;;;;;;;6.35;3.50;;;;;;;;;;5060353;28;20025;-74
2021/08/21 09:28:22;;;;;;;6.53;3.47;;;;;;;;;;5061481;28;20025;-74
2021/08/21 09:30:58;;;;;;;5.85;4.00;;;;;;;;;;5062526;28;20129;-74
2021/08/21 09:33:24;;;;;;;7.25;3.70;;;;;;;;;;5056744;28;20040;-74
2021/08/21 09:35:49;;;;;;;6.20;3.45;;;;;;;;;;5056963;28;20021;-74
2021/08/21 09:38:14;;;;;;;6.55;4.05;;;;;;;;;;5062800;28;20410;-74
2021/08/21 09:40:40;;;;;;;6.53;4.15;;;;;;;;;;5061816;28;20060;-74
2021/08/21 09:43:15;;;;;;;7.15;4.50;;;;;;;;;;5064872;28;20028;-74
2021/08/21 09:45:41;;;;;;;5.55;3.47;;;;;;;;;;5056124;28;20020;-74
2021/08/21 09:48:07;;;;;;;6.45;4.30;;;;;;;;;;5064458;28;20029;-74
2021/08/21 09:50:38;;;;;;;7.13;3.63;;;;;;;;;;5065427;28;20027;-74
2021/08/21 09:53:09;;;;;;;5.97;4.20;;;;;;;;;;5034333;28;20029;-74
2021/08/21 09:55:35;;;;;;;7.43;3.50;;;;;;;;;;5062108;28;20029;-74
2021/08/21 09:58:03;;;;;;;7.85;4.00;;;;;;;;;;5058999;28;20039;-74
2021/08/21 10:00:29;;;;;;;7.88;3.90;;;;;;;;;;5064670;28;20020;-74
2021/08/21 10:02:56;;;;;;;5.22;3.22;;;;;;;;;;5064483;28;20132;-74
2021/08/21 10:05:23;;;;;;;6.60;3.10;;;;;;;;;;5046321;28;20036;-77
2021/08/21 10:07:52;;;;;;;5.93;3.28;;;;;;;;;;5045938;28;20025;-76
2021/08/21 10:10:22;;;;;;;5.10;3.00;;;;;;;;;;5064501;28;20104;-77
2021/08/21 10:12:53;;;;;;;7.93;3.63;;;;;;;;;;5041352;28;20024;-77
2021/08/21 10:15:19;;;;;;;;;;;;;;;;;;5048972;28;20038;-77
2021/08/21 10:17:46;;;;;;;6.38;3.90;;;;;;;;;;5060862;28;19965;-77
2021/08/21 10:20:12;;;;;;;6.45;3.72;;;;;;;;;;5069447;28;20034;-77
2021/08/21 10:22:38;;;;;;;7.20;3.70;;;;;;;;;;5070162;28;20055;-77
2021/08/21 10:25:05;;;;;;;6.40;3.90;;;;;;;;;;5061427;28;20476;-77
2021/08/21 10:27:35;;;;;;;8.02;4.28;;;;;;;;;;5042194;28;20025;-78
2021/08/21 10:30:09;;;;;;;7.07;4.40;;;;;;;;;;5058404;28;20024;-78
2021/08/21 10:32:37;;;;;;;5.45;3.33;;;;;;;;;;5078321;28;20020;-77
2021/08/21 10:35:04;;;;;;;8.45;3.33;;;;;;;;;;5048715;28;20123;-77
2021/08/21 10:37:31;;;;;;;6.82;3.42;;;;;;;;;;5048810;28;20074;-77
2021/08/21 10:39:57;;;;;;;7.25;3.63;;;;;;;;;;5066809;28;20060;-78
2021/08/21 10:42:27;;;;;;;6.78;3.55;;;;;;;;;;5065294;28;20044;-77
2021/08/21 10:44:54;;;;;;;5.50;3.53;;;;;;;;;;5068284;28;20103;-78
2021/08/21 10:47:32;;;;;;;5.63;3.45;;;;;;;;;;5068467;28;20035;-77
2021/08/21 10:49:58;;;;;;;8.75;3.33;;;;;;;;;;5050708;28;20051;-78
2021/08/21 10:52:46;;;;;;;5.80;3.15;;;;;;;;;;5068078;28;20021;-78
2021/08/21 10:55:16;;;;;;;5.07;3.40;;;;;;;;;;5067979;28;20028;-77
2021/08/21 10:57:57;;;;;;;6.30;3.72;;;;;;;;;;5067704;28;20388;-78
2021/08/21 11:00:41;;;;;;;6.22;3.72;;;;;;;;;;5050335;28;20023;-78
2021/08/21 11:03:15;;;;;;;6.22;3.80;;;;;;;;;;5044844;28;20036;-78
2021/08/21 11:06:10;;;;;;;5.35;3.20;;;;;;;;;;5065131;28;20023;-78
2021/08/21 11:08:35;;;;;;;5.82;3.80;;;;;;;;;;5065143;28;20143;-78
2021/08/21 11:13:55;;;;;;;7.50;4.00;;;;;;;;;;5065632;28;20056;-77
2021/08/21 11:16:22;;;;;;;8.93;4.28;;;;;;;;;;5068476;28;20059;-77
2021/08/21 11:18:50;;;;;;;5.82;3.30;;;;;;;;;;5047688;28;20020;-77
2021/08/21 11:21:36;;;;;;;5.88;4.22;;;;;;;;;;5048604;28;20021;-77
2021/08/21 11:24:21;;;;;;;6.30;3.45;;;;;;;;;;5046078;28;20060;-77
2021/08/21 11:26:47;;;;;;;6.85;4.75;;;;;;;;;;5063386;28;20028;-77
2021/08/21 11:29:14;;;;;;;8.13;4.00;;;;;;;;;;5056800;28;20036;-77
2021/08/21 11:31:59;;;;;;;5.65;3.30;;;;;;;;;;5041798;28;20028;-77
2021/08/21 11:34:25;;;;;;;6.22;3.50;;;;;;;;;;5066398;28;20063;-78
2021/08/21 11:36:50;;;;;;;5.07;2.97;;;;;;;;;;5048283;28;20431;-78
2021/08/21 11:39:16;;;;;;;4.88;2.85;;;;;;;;;;5047697;28;20040;-78
2021/08/21 11:41:55;;;;;;;4.88;3.08;;;;;;;;;;5063996;28;20163;-78
2021/08/21 11:44:30;;;;;;;7.22;3.15;;;;;;;;;;5064912;28;20029;-78
2021/08/21 11:47:09;;;;;;;6.07;3.67;;;;;;;;;;5061875;28;20033;-77
2021/08/21 11:49:35;;;;;;;5.55;3.47;;;;;;;;;;5045666;28;20028;-77
2021/08/21 11:52:03;;;;;;;5.15;3.50;;;;;;;;;;5063992;28;20403;-77
2021/08/21 11:54:29;;;;;;;5.03;3.50;;;;;;;;;;5058706;28;20749;-77
2021/08/21 11:57:02;;;;;;;5.28;3.53;;;;;;;;;;5064598;28;20028;-77
2021/08/21 11:59:27;;;;;;;4.63;3.20;;;;;;;;;;5063194;28;20393;-77
2021/08/21 12:02:09;;;;;;;6.15;3.42;;;;;;;;;;5063999;28;20073;-77
2021/08/21 12:04:35;;;;;;;5.05;3.30;;;;;;;;;;5046976;28;20033;-72
2021/08/21 12:07:00;;;;;;;6.40;3.40;;;;;;;;;;5063904;28;20024;-70
2021/08/21 12:09:26;;;;;;;4.88;3.10;;;;;;;;;;5063887;28;20040;-70
2021/08/21 12:11:53;;;;;;;5.78;3.17;;;;;;;;;;5063729;28;20028;-70
2021/08/21 12:14:22;;;;;;;5.25;3.33;;;;;;;;;;5064932;28;20031;-70
2021/08/21 12:16:50;;;;;;;5.53;3.08;;;;;;;;;;5065943;28;20115;-71
2021/08/21 12:19:15;;;;;;;7.28;3.70;;;;;;;;;;5063690;28;20024;-75
2021/08/21 12:21:41;;;;;;;5.43;2.72;;;;;;;;;;5069403;28;20081;-72
2021/08/21 12:24:09;;;;;;;4.30;2.90;;;;;;;;;;5047569;28;20411;-72
2021/08/21 12:26:42;;;;;;;4.57;3.05;;;;;;;;;;5065186;28;20133;-72
2021/08/21 12:29:25;;;;;;;5.57;2.78;;;;;;;;;;5070018;28;20063;-72
2021/08/21 12:31:51;;;;;;;8.00;4.32;;;;;;;;;;5051399;28;20017;-72
2021/08/21 12:34:19;;;;;;;4.90;3.33;;;;;;;;;;5051974;28;20027;-72
2021/08/21 12:36:45;;;;;;;7.57;3.00;;;;;;;;;;5069926;28;20082;-72
2021/08/21 12:39:12;;;;;;;5.75;2.70;;;;;;;;;;5066039;28;20055;-72
2021/08/21 12:41:51;;;;;;;4.68;3.20;;;;;;;;;;5067684;28;20020;-73
2021/08/21 12:44:22;;;;;;;4.90;3.20;;;;;;;;;;5067246;28;20032;-73
2021/08/21 12:47:00;;;;;;;5.88;3.03;;;;;;;;;;5057319;28;20025;-73
2021/08/21 12:49:42;;;;;;;5.28;3.15;;;;;;;;;;5054393;28;20111;-73
2021/08/21 12:52:12;;;;;;;5.15;3.22;;;;;;;;;;5049289;28;20042;-74
2021/08/21 12:54:40;;;;;;;5.10;3.00;;;;;;;;;;5067374;28;20035;-74
2021/08/21 12:57:14;;;;;;;4.72;2.80;;;;;;;;;;5067168;28;20083;-74
2021/08/21 12:59:41;;;;;;;4.60;3.08;;;;;;;;;;5049338;28;20123;-71
2021/08/21 13:02:07;;;;;;;5.63;3.08;;;;;;;;;;5066866;28;20024;-71
2021/08/21 13:04:34;;;;;;;7.38;3.17;;;;;;;;;;5067617;28;20219;-73
2021/08/21 13:07:05;;;;;;;6.88;3.22;;;;;;;;;;5066824;28;20035;-73
2021/08/21 13:09:30;;;;;;;4.75;3.20;;;;;;;;;;5049899;28;20032;-73
2021/08/21 13:11:57;;;;;;;3.95;2.92;;;;;;;;;;5050775;28;20380;-73
2021/08/21 13:14:23;;;;;;;6.53;3.15;;;;;;;;;;5069053;28;20104;-73
2021/08/21 13:16:48;;;;;;;4.38;3.05;;;;;;;;;;5039210;28;20456;-73
2021/08/21 13:19:13;;;;;;;5.05;2.97;;;;;;;;;;5071982;28;20108;-74
2021/08/21 13:21:39;;;;;;;4.38;2.78;;;;;;;;;;5063906;28;20021;-73
2021/08/21 13:24:04;;;;;;;4.32;3.22;;;;;;;;;;5063740;28;20031;-73
2021/08/21 13:26:34;;;;;;;5.20;3.13;;;;;;;;;;5069264;28;20074;-73
2021/08/21 13:29:00;;;;;;;6.68;3.53;;;;;;;;;;5045775;28;20031;-73
2021/08/21 13:31:25;;;;;;;5.80;3.35;;;;;;;;;;5069780;28;20017;-73
2021/08/21 13:33:51;;;;;;;5.00;3.10;;;;;;;;;;5050862;28;20525;-73
2021/08/21 13:36:16;;;;;;;4.57;3.03;;;;;;;;;;5068313;28;20264;-73
2021/08/21 13:38:41;;;;;;;5.35;3.08;;;;;;;;;;5067408;28;20028;-73
2021/08/21 13:41:06;;;;;;;4.97;3.20;;;;;;;;;;5066911;28;20058;-73
2021/08/21 13:43:32;;;;;;;4.78;2.70;;;;;;;;;;5066616;28;20254;-72
2021/08/21 13:45:57;;;;;;;5.13;3.53;;;;;;;;;;5066865;28;20049;-72
2021/08/21 13:48:22;;;;;;;5.38;2.95;;;;;;;;;;5067069;28;20273;-72
2021/08/21 13:50:48;;;;;;;5.75;3.00;;;;;;;;;;5066552;28;20051;-73
2021/08/21 13:53:14;;;;;;;6.30;3.13;;;;;;;;;;5066794;28;20025;-73
2021/08/21 13:55:40;;;;;;;4.63;2.97;;;;;;;;;;5066688;28;20423;-73
2021/08/21 13:58:06;;;;;;;4.97;2.90;;;;;;;;;;5066872;28;20036;-73
2021/08/21 14:00:31;;;;;;;4.88;2.92;;;;;;;;;;5065985;28;20024;-73
2021/08/21 14:02:57;;;;;;;6.90;3.20;;;;;;;;;;5066739;28;20029;-73
2021/08/21 14:05:22;;;;;;;4.53;2.83;;;;;;;;;;5048719;28;20802;-73
2021/08/21 14:07:48;;;;;;;5.82;3.30;;;;;;;;;;5049608;28;20021;-73
2021/08/21 14:10:14;;;;;;;7.75;3.45;;;;;;;;;;5076420;28;20021;-73
2021/08/21 14:12:40;;;;;;;4.97;3.20;;;;;;;;;;5065573;28;20054;-73
2021/08/21 14:15:09;;;;;;;5.20;3.15;;;;;;;;;;5051893;28;20093;-73
2021/08/21 14:17:34;;;;;;;6.03;3.55;;;;;;;;;;5047965;28;20166;-73
2021/08/21 14:20:01;;;;;;;4.65;3.22;;;;;;;;;;5083312;28;20059;-72
2021/08/21 14:22:31;;;;;;;5.00;3.30;;;;;;;;;;5053953;28;20069;-72
2021/08/21 14:24:56;;;;;;;8.07;4.55;;;;;;;;;;5057428;28;20116;-72
2021/08/21 14:27:22;;;;;;;4.90;2.83;;;;;;;;;;5066242;28;20447;-72
2021/08/21 14:29:47;;;;;;;5.50;3.45;;;;;;;;;;5068318;28;20035;-72
2021/08/21 14:32:12;;;;;;;5.40;3.55;;;;;;;;;;5064424;28;20028;-72
2021/08/21 14:34:38;;;;;;;6.43;3.42;;;;;;;;;;5068121;28;20039;-72
2021/08/21 14:37:03;;;;;;;5.70;3.65;;;;;;;;;;5066299;28;20260;-73
2021/08/21 14:39:29;;;;;;;5.38;3.38;;;;;;;;;;5065859;28;20051;-73
2021/08/21 14:41:55;;;;;;;5.30;3.22;;;;;;;;;;5047734;28;20107;-73
2021/08/21 14:44:20;;;;;;;5.78;3.15;;;;;;;;;;5065555;28;20107;-73
2021/08/21 14:46:46;;;;;;;5.55;3.22;;;;;;;;;;5065163;28;20028;-73